Holden, Maine
Current Conditions -  °F | °C
As of 11:53 AM on Wednesday 26 Nov 2014 (Local Time) from KBGR Reporting Station
Overcast Overcast  
Wind Chill: 32°   Ceiling: 10000
Heat Index: 39°   Visibility: 10mi
Dew Point: 25°   Wind: 12mph
Humidity: 57%   Direction: 340°NNW
Pressure: 30.18"   Gusts: NA
Location:  44.75°N, 68.68°W
Report Text: KBGR 261653Z 34010KT 10SM FEW030 BKN100 OVC140 04/M04 A3018 RMK AO2 SLP222 T00391039
Loading
Personal Weather Stations






























Interactive Weather Map New forecast layout! Learn more

10-Day Weather Forecast

Advertisements
Track Severe Weather on mobile